Time;durP1;ratioP1;P1;durP2;ratioP2;P2;SDS_P1;SDS_P2;PMS_P1;PMS_P2;Temp;Humidity;BMP_temperature;BMP_pressure;BME280_temperature;BME280_humidity;BME280_pressure;Samples;Min_cycle;Max_cycle;Signal;HPM_P1;HPM_P2
2021/08/01 00:02:12;;;;;;;0.75;0.73;;;24.90;50.30;;;;;;5115477;28;20055;-53
2021/08/01 00:04:38;;;;;;;0.75;0.75;;;24.90;50.30;;;;;;5134322;28;20054;-51
2021/08/01 00:07:04;;;;;;;0.77;0.73;;;24.90;50.30;;;;;;5134358;28;20640;-51
2021/08/01 00:09:29;;;;;;;1.00;0.90;;;25.00;50.30;;;;;;5134313;28;20047;-54
2021/08/01 00:11:55;;;;;;;0.82;0.82;;;25.00;50.40;;;;;;5133830;28;20103;-50
2021/08/01 00:14:21;;;;;;;0.90;0.90;;;25.00;50.90;;;;;;5115324;28;20046;-53
2021/08/01 00:16:48;;;;;;;0.80;0.80;;;24.90;50.30;;;;;;5133884;28;20055;-50
2021/08/01 00:19:15;;;;;;;1.20;1.10;;;25.00;50.40;;;;;;5115129;28;20061;-52
2021/08/01 00:21:42;;;;;;;0.80;0.80;;;24.90;50.30;;;;;;5133681;28;20058;-49
2021/08/01 00:24:07;;;;;;;0.90;0.90;;;24.90;50.40;;;;;;5133721;28;20079;-50
2021/08/01 00:26:33;;;;;;;0.70;0.70;;;24.90;50.30;;;;;;5113351;28;20075;-50
2021/08/01 00:28:58;;;;;;;1.27;1.17;;;24.90;50.40;;;;;;5133216;28;20054;-51
2021/08/01 00:31:24;;;;;;;1.77;0.95;;;24.90;50.40;;;;;;5113331;28;20051;-48
2021/08/01 00:33:50;;;;;;;0.88;0.88;;;24.90;50.40;;;;;;5133449;28;20051;-54
2021/08/01 00:36:16;;;;;;;1.10;1.00;;;24.90;50.40;;;;;;5132572;27;20058;-54
2021/08/01 00:38:42;;;;;;;1.00;0.90;;;24.90;50.40;;;;;;5133211;28;20062;-51
2021/08/01 00:41:07;;;;;;;0.90;0.90;;;24.90;50.40;;;;;;5133824;28;20089;-49
2021/08/01 00:43:33;;;;;;;1.02;0.93;;;24.90;50.40;;;;;;5133495;28;20088;-52
2021/08/01 00:45:59;;;;;;;0.95;0.88;;;24.90;50.40;;;;;;5133654;28;20051;-54
2021/08/01 00:48:26;;;;;;;1.00;1.00;;;24.90;50.50;;;;;;5115219;28;20055;-53
2021/08/01 00:50:55;;;;;;;1.20;1.10;;;24.90;50.40;;;;;;5133382;28;20495;-47
2021/08/01 00:53:21;;;;;;;0.77;0.77;;;24.90;50.50;;;;;;5133289;28;20078;-53
2021/08/01 00:55:48;;;;;;;1.17;1.10;;;24.90;50.40;;;;;;5114895;28;20058;-49
2021/08/01 00:58:13;;;;;;;1.08;1.00;;;24.90;50.40;;;;;;5112762;28;20052;-55
2021/08/01 01:01:07;;;;;;;1.17;1.00;;;24.80;50.40;;;;;;5133441;28;20066;-51
2021/08/01 01:03:53;;;;;;;1.05;0.95;;;24.80;50.40;;;;;;5133213;28;20487;-52
2021/08/01 01:06:27;;;;;;;1.33;0.85;;;24.90;51.00;;;;;;5112965;28;20484;-48
2021/08/01 01:09:14;;;;;;;1.00;0.90;;;24.80;50.40;;;;;;5114048;28;20451;-48
2021/08/01 01:12:19;;;;;;;0.75;0.75;;;24.80;50.40;;;;;;5133233;28;20086;-47
2021/08/01 01:14:48;;;;;;;1.15;0.90;;;24.80;50.50;;;;;;5114505;28;20043;-51
2021/08/01 01:17:19;;;;;;;1.20;1.10;;;24.80;50.50;;;;;;5132959;28;20059;-52
2021/08/01 01:19:45;;;;;;;;;;;24.80;50.50;;;;;;5133819;28;20073;-51
2021/08/01 01:22:22;;;;;;;1.08;0.98;;;24.80;50.50;;;;;;5114559;28;19915;-47
2021/08/01 01:25:14;;;;;;;1.02;0.93;;;24.80;50.50;;;;;;5133368;28;20535;-52
2021/08/01 01:27:50;;;;;;;1.02;0.80;;;24.80;50.50;;;;;;5114587;28;20076;-52
2021/08/01 01:30:16;;;;;;;0.77;0.77;;;24.80;50.60;;;;;;5114521;28;20058;-50
2021/08/01 01:32:53;;;;;;;1.05;0.98;;;24.80;50.50;;;;;;5114647;28;20062;-53
2021/08/01 01:35:20;;;;;;;0.82;0.82;;;24.80;50.60;;;;;;5133393;28;20059;-52
2021/08/01 01:37:48;;;;;;;1.13;1.05;;;24.80;50.60;;;;;;5132655;28;20465;-53
2021/08/01 01:40:25;;;;;;;0.82;0.82;;;24.80;50.60;;;;;;5113210;28;20051;-52
2021/08/01 01:43:12;;;;;;;1.05;1.00;;;24.80;50.60;;;;;;5114547;28;20391;-52
2021/08/01 01:45:38;;;;;;;1.08;1.05;;;24.80;50.60;;;;;;5112433;28;20051;-54
2021/08/01 01:48:04;;;;;;;0.80;0.80;;;24.80;50.60;;;;;;5133095;27;20051;-50
2021/08/01 01:50:30;;;;;;;0.70;0.70;;;24.80;50.60;;;;;;5117581;28;20058;-48
2021/08/01 01:52:56;;;;;;;0.90;0.90;;;24.70;50.60;;;;;;5117735;28;20401;-47
2021/08/01 01:55:23;;;;;;;1.20;1.10;;;24.80;50.70;;;;;;5136104;28;20047;-49
2021/08/01 01:57:51;;;;;;;1.35;1.20;;;24.70;50.60;;;;;;5117477;28;20058;-50
2021/08/01 02:00:18;;;;;;;0.90;0.90;;;24.80;50.70;;;;;;5118003;28;20096;-51
2021/08/01 02:02:44;;;;;;;0.75;0.75;;;24.80;50.70;;;;;;5136278;28;20500;-52
2021/08/01 02:05:17;;;;;;;0.70;0.70;;;24.80;50.70;;;;;;5117499;28;20058;-52
2021/08/01 02:08:18;;;;;;;0.73;0.73;;;24.70;50.70;;;;;;5135741;28;20111;-53
2021/08/01 02:11:09;;;;;;;0.88;0.88;;;24.70;50.70;;;;;;5135586;28;20043;-48
2021/08/01 02:13:50;;;;;;;1.02;1.00;;;24.70;50.70;;;;;;5117444;28;20161;-47
2021/08/01 02:16:18;;;;;;;1.02;0.90;;;24.70;50.70;;;;;;5116080;28;20043;-50
2021/08/01 02:18:52;;;;;;;1.10;1.00;;;24.70;50.70;;;;;;5115727;28;20063;-52
2021/08/01 02:21:22;;;;;;;0.80;0.80;;;24.80;50.70;;;;;;5115911;28;20112;-50
2021/08/01 02:23:50;;;;;;;0.90;0.90;;;24.70;50.70;;;;;;5116197;28;20051;-49
2021/08/01 02:26:20;;;;;;;0.90;0.90;;;24.70;50.70;;;;;;5115411;28;20453;-50
2021/08/01 02:28:52;;;;;;;1.02;0.95;;;24.70;51.30;;;;;;5135930;28;20053;-51
2021/08/01 02:31:19;;;;;;;0.90;0.90;;;24.70;50.70;;;;;;5135369;28;20050;-49
2021/08/01 02:33:46;;;;;;;1.10;1.00;;;24.70;50.70;;;;;;5100572;28;20051;-52
2021/08/01 02:36:18;;;;;;;1.48;1.20;;;24.70;50.70;;;;;;5135800;28;20146;-48
2021/08/01 02:38:49;;;;;;;;;;;24.70;50.80;;;;;;5117465;28;20134;-51
2021/08/01 02:41:23;;;;;;;1.00;1.00;;;24.70;50.80;;;;;;5116811;28;19915;-49
2021/08/01 02:43:51;;;;;;;1.20;1.10;;;24.70;50.80;;;;;;5135208;28;20043;-49
2021/08/01 02:46:22;;;;;;;1.00;0.90;;;24.70;50.80;;;;;;5116807;28;20054;-51
2021/08/01 02:48:49;;;;;;;1.10;1.00;;;24.70;51.30;;;;;;5116816;28;20086;-47
2021/08/01 02:51:16;;;;;;;0.82;0.80;;;24.70;50.80;;;;;;5116101;28;20498;-51
2021/08/01 02:53:48;;;;;;;0.98;0.98;;;24.70;50.80;;;;;;5134989;28;20133;-49
2021/08/01 02:56:20;;;;;;;1.63;0.93;;;24.70;50.80;;;;;;5115716;28;20453;-51
2021/08/01 02:58:49;;;;;;;1.02;1.02;;;24.70;50.80;;;;;;5115179;27;20055;-49
2021/08/01 03:01:16;;;;;;;0.80;0.80;;;24.70;50.80;;;;;;5115325;28;20056;-51
2021/08/01 03:03:43;;;;;;;0.80;0.80;;;24.70;50.80;;;;;;5115214;28;20044;-49
2021/08/01 03:06:09;;;;;;;0.98;0.95;;;24.70;50.80;;;;;;5135259;28;20050;-49
2021/08/01 03:08:37;;;;;;;1.10;1.00;;;24.70;50.90;;;;;;5116912;28;20043;-49
2021/08/01 03:11:02;;;;;;;0.95;0.90;;;24.70;50.80;;;;;;5116567;28;20058;-49
2021/08/01 03:13:28;;;;;;;0.73;0.73;;;24.70;50.90;;;;;;5116289;28;20047;-50
2021/08/01 03:15:54;;;;;;;0.80;0.80;;;24.60;50.80;;;;;;5134831;28;20049;-48
2021/08/01 03:18:20;;;;;;;0.88;0.88;;;24.70;50.90;;;;;;5115148;28;20052;-50
2021/08/01 03:20:46;;;;;;;0.95;0.95;;;24.70;50.90;;;;;;5116572;28;20074;-49
2021/08/01 03:23:20;;;;;;;1.00;0.90;;;24.70;50.90;;;;;;5135036;28;20054;-47
2021/08/01 03:26:24;;;;;;;0.75;0.75;;;24.70;50.90;;;;;;5111710;28;20171;-51
2021/08/01 03:28:50;;;;;;;1.13;0.77;;;24.60;51.40;;;;;;5135004;28;20093;-48
2021/08/01 03:31:16;;;;;;;0.75;0.75;;;24.60;50.90;;;;;;5114020;28;20491;-51
2021/08/01 03:33:46;;;;;;;1.00;0.90;;;24.60;50.90;;;;;;5116004;28;20383;-51
2021/08/01 03:36:12;;;;;;;1.00;1.00;;;24.60;50.90;;;;;;5116465;28;20059;-47
2021/08/01 03:38:56;;;;;;;0.70;0.70;;;24.60;50.90;;;;;;5134479;28;20103;-49
2021/08/01 03:41:52;;;;;;;0.85;0.85;;;24.60;50.90;;;;;;5101859;28;20495;-52
2021/08/01 03:44:23;;;;;;;0.93;0.93;;;24.60;50.90;;;;;;5116005;28;20051;-50
2021/08/01 03:46:50;;;;;;;1.20;1.10;;;24.60;50.90;;;;;;5134644;28;20147;-49
2021/08/01 03:49:17;;;;;;;1.20;1.10;;;24.60;51.50;;;;;;5115280;28;20089;-48
2021/08/01 03:51:44;;;;;;;1.10;1.00;;;24.60;50.90;;;;;;5114937;28;20177;-49
2021/08/01 03:54:12;;;;;;;0.90;0.90;;;24.60;51.00;;;;;;5134137;28;20062;-50
2021/08/01 03:56:46;;;;;;;0.88;0.88;;;24.60;51.00;;;;;;5134213;28;20078;-46
2021/08/01 03:59:12;;;;;;;0.77;0.77;;;24.60;51.00;;;;;;5133972;28;20051;-49
2021/08/01 04:01:39;;;;;;;0.98;0.95;;;24.60;51.00;;;;;;5134089;28;20058;-48
2021/08/01 04:04:04;;;;;;;1.08;0.98;;;24.60;51.00;;;;;;5133912;28;20043;-52
2021/08/01 04:06:32;;;;;;;0.95;0.80;;;24.60;51.00;;;;;;5114955;28;20047;-48
2021/08/01 04:08:59;;;;;;;0.90;0.80;;;24.60;51.00;;;;;;5133766;28;20051;-48
2021/08/01 04:11:24;;;;;;;1.23;1.13;;;24.60;51.00;;;;;;5132811;27;20415;-53
2021/08/01 04:13:50;;;;;;;1.05;1.00;;;24.60;50.90;;;;;;5133647;28;20050;-50
2021/08/01 04:16:16;;;;;;;0.90;0.90;;;24.60;51.00;;;;;;5133740;28;20550;-48
2021/08/01 04:18:41;;;;;;;0.80;0.80;;;24.60;51.00;;;;;;5133903;28;20417;-48
2021/08/01 04:21:11;;;;;;;0.82;0.80;;;24.60;51.00;;;;;;5133795;28;20055;-49
2021/08/01 04:23:38;;;;;;;1.10;1.00;;;24.60;50.90;;;;;;5134075;28;20047;-48
2021/08/01 04:26:05;;;;;;;1.02;0.93;;;24.60;50.90;;;;;;5133704;28;20055;-48
2021/08/01 04:28:31;;;;;;;1.20;1.05;;;24.60;50.90;;;;;;5133641;28;20051;-49
2021/08/01 04:30:56;;;;;;;1.10;1.00;;;24.60;50.90;;;;;;5133629;28;20051;-50
2021/08/01 04:33:22;;;;;;;1.02;1.02;;;24.60;50.90;;;;;;5133526;28;20047;-49
2021/08/01 04:35:48;;;;;;;1.38;1.23;;;24.70;50.90;;;;;;5133921;28;20487;-47
2021/08/01 04:38:13;;;;;;;1.00;1.00;;;24.70;50.80;;;;;;5133466;28;20043;-47
2021/08/01 04:40:39;;;;;;;1.05;0.98;;;24.70;50.80;;;;;;5133451;28;20058;-52
2021/08/01 04:43:05;;;;;;;0.98;0.88;;;24.70;50.80;;;;;;5133562;28;20044;-50
2021/08/01 04:45:30;;;;;;;1.20;1.10;;;24.70;50.80;;;;;;5133508;28;20128;-48
2021/08/01 04:47:56;;;;;;;0.85;0.85;;;24.70;50.90;;;;;;5114809;28;20055;-47
2021/08/01 04:50:21;;;;;;;0.73;0.73;;;24.60;50.80;;;;;;5133364;28;20498;-50
2021/08/01 04:52:51;;;;;;;0.80;0.80;;;24.70;50.90;;;;;;5133391;28;20043;-49
2021/08/01 04:55:16;;;;;;;0.80;0.80;;;24.60;50.80;;;;;;5133365;28;20103;-53
2021/08/01 04:57:42;;;;;;;0.80;0.80;;;24.60;50.90;;;;;;5133125;28;20043;-50
2021/08/01 05:00:08;;;;;;;0.90;0.90;;;24.60;50.90;;;;;;5133650;28;20096;-51
2021/08/01 05:02:34;;;;;;;1.15;1.05;;;24.60;50.90;;;;;;5133439;28;20114;-50
2021/08/01 05:05:02;;;;;;;1.13;1.00;;;24.60;50.90;;;;;;5133211;28;20064;-50
2021/08/01 05:07:28;;;;;;;0.80;0.80;;;24.60;50.90;;;;;;5133012;28;20090;-49
2021/08/01 05:09:53;;;;;;;1.42;1.02;;;24.60;50.90;;;;;;5133111;28;20051;-51
2021/08/01 05:12:19;;;;;;;0.88;0.88;;;24.60;50.90;;;;;;5133476;28;20059;-47
2021/08/01 05:14:45;;;;;;;0.90;0.90;;;24.60;50.90;;;;;;5133562;28;20130;-49
2021/08/01 05:17:12;;;;;;;0.75;0.75;;;24.60;50.90;;;;;;5114114;28;20051;-48
2021/08/01 05:19:39;;;;;;;0.88;0.88;;;24.60;50.90;;;;;;5132875;28;20051;-51
2021/08/01 05:22:05;;;;;;;1.17;1.08;;;24.60;50.90;;;;;;5133195;27;20047;-50
2021/08/01 05:24:31;;;;;;;1.02;0.90;;;24.60;50.90;;;;;;5137183;28;20039;-52
2021/08/01 05:26:56;;;;;;;0.88;0.88;;;24.60;50.90;;;;;;5136566;28;20073;-50
2021/08/01 05:29:22;;;;;;;0.82;0.82;;;24.60;50.90;;;;;;5136667;28;20400;-53
2021/08/01 05:31:47;;;;;;;0.98;0.90;;;24.60;50.90;;;;;;5136706;28;20402;-51
2021/08/01 05:34:13;;;;;;;0.82;0.82;;;24.60;50.90;;;;;;5118342;28;20146;-51
2021/08/01 05:36:39;;;;;;;0.82;0.82;;;24.60;50.90;;;;;;5136462;28;20104;-46
2021/08/01 05:39:05;;;;;;;1.17;1.10;;;24.60;50.90;;;;;;5117608;28;20050;-49
2021/08/01 05:41:30;;;;;;;1.20;1.10;;;24.60;50.90;;;;;;5136763;28;20399;-49
2021/08/01 05:43:56;;;;;;;1.10;1.00;;;24.70;50.90;;;;;;5136190;28;20047;-46
2021/08/01 05:46:22;;;;;;;0.90;0.80;;;24.70;50.80;;;;;;5136399;28;20063;-48
2021/08/01 05:48:48;;;;;;;1.55;1.00;;;24.60;50.80;;;;;;5136662;28;20051;-55
2021/08/01 05:51:14;;;;;;;0.90;0.90;;;24.70;50.80;;;;;;5136208;28;20065;-51
2021/08/01 05:53:39;;;;;;;0.93;0.93;;;24.70;50.80;;;;;;5136073;28;20055;-48
2021/08/01 05:56:11;;;;;;;0.98;0.98;;;24.70;50.80;;;;;;5136214;28;20058;-51
2021/08/01 05:58:38;;;;;;;0.90;0.90;;;24.70;50.80;;;;;;5135636;28;20050;-49
2021/08/01 06:01:11;;;;;;;1.08;0.98;;;24.70;50.80;;;;;;5136553;28;20043;-51
2021/08/01 06:03:37;;;;;;;0.93;0.93;;;24.70;50.80;;;;;;5136009;28;20057;-51
2021/08/01 06:06:11;;;;;;;0.80;0.80;;;24.70;50.80;;;;;;5136478;28;20051;-51
2021/08/01 06:08:37;;;;;;;0.95;0.95;;;24.70;50.80;;;;;;5135774;28;20051;-49
2021/08/01 06:11:04;;;;;;;0.73;0.73;;;24.70;50.80;;;;;;5135856;28;20054;-50
2021/08/01 06:13:30;;;;;;;0.95;0.90;;;24.70;50.80;;;;;;5135991;28;20600;-53
2021/08/01 06:15:56;;;;;;;1.08;1.00;;;24.60;50.80;;;;;;5135765;28;20130;-49
2021/08/01 06:18:21;;;;;;;1.05;0.93;;;24.60;50.80;;;;;;5136051;28;20039;-48
2021/08/01 06:20:47;;;;;;;1.00;0.90;;;24.60;50.80;;;;;;5117159;28;20058;-49
2021/08/01 06:23:12;;;;;;;0.85;0.82;;;24.60;50.80;;;;;;5135586;28;20054;-51
2021/08/01 06:25:38;;;;;;;1.33;1.23;;;24.70;50.80;;;;;;5115878;28;20044;-52
2021/08/01 06:28:05;;;;;;;1.30;0.90;;;24.70;50.70;;;;;;5135563;28;20050;-49
2021/08/01 06:30:30;;;;;;;0.82;0.82;;;24.70;50.70;;;;;;5135380;28;20117;-48
2021/08/01 06:32:56;;;;;;;0.88;0.88;;;24.70;50.60;;;;;;5135366;28;20058;-48
2021/08/01 06:35:22;;;;;;;1.08;0.80;;;24.80;50.60;;;;;;5134678;27;20070;-47
2021/08/01 06:37:47;;;;;;;0.85;0.80;;;24.80;50.50;;;;;;5135356;28;20075;-48
2021/08/01 06:40:15;;;;;;;1.00;0.95;;;24.80;50.50;;;;;;5135320;28;20055;-52
2021/08/01 06:42:42;;;;;;;1.10;1.00;;;24.80;50.50;;;;;;5135422;28;20059;-50
2021/08/01 06:45:08;;;;;;;0.80;0.80;;;24.80;50.50;;;;;;5135367;28;20047;-52
2021/08/01 06:47:34;;;;;;;0.90;0.90;;;24.80;50.50;;;;;;5135648;28;20103;-47
2021/08/01 06:50:00;;;;;;;0.93;0.90;;;24.80;50.50;;;;;;5135229;28;20047;-49
2021/08/01 06:52:26;;;;;;;0.70;0.70;;;24.80;50.50;;;;;;5135533;28;20051;-50
2021/08/01 06:54:51;;;;;;;1.05;0.95;;;24.80;50.50;;;;;;5135007;28;20138;-51
2021/08/01 06:57:17;;;;;;;1.10;0.80;;;24.80;50.50;;;;;;5117254;28;20051;-51
2021/08/01 06:59:42;;;;;;;1.00;1.00;;;24.80;50.50;;;;;;5135078;28;20054;-51
2021/08/01 07:02:08;;;;;;;1.00;1.00;;;24.80;51.00;;;;;;5116583;28;20491;-50
2021/08/01 07:04:33;;;;;;;0.93;0.90;;;24.80;50.50;;;;;;5115988;28;20054;-49
2021/08/01 07:07:00;;;;;;;0.93;0.90;;;24.80;50.50;;;;;;5135464;28;20055;-49
2021/08/01 07:09:25;;;;;;;1.25;0.98;;;24.70;50.40;;;;;;5134964;28;20051;-49
2021/08/01 07:11:51;;;;;;;0.75;0.75;;;24.80;50.50;;;;;;5134856;28;20080;-51
2021/08/01 07:14:17;;;;;;;1.08;1.00;;;24.80;50.50;;;;;;5134978;28;20176;-49
2021/08/01 07:16:44;;;;;;;1.05;0.80;;;24.80;50.50;;;;;;5114836;28;20096;-50
2021/08/01 07:19:11;;;;;;;0.80;0.80;;;24.80;50.40;;;;;;5114168;28;20087;-49
2021/08/01 07:21:36;;;;;;;1.13;0.90;;;24.80;50.50;;;;;;5134688;28;20403;-52
2021/08/01 07:24:02;;;;;;;1.10;1.00;;;24.80;50.40;;;;;;5134835;28;20047;-50
2021/08/01 07:26:28;;;;;;;0.80;0.80;;;24.80;50.40;;;;;;5134495;28;20058;-52
2021/08/01 07:28:53;;;;;;;0.80;0.80;;;24.80;50.40;;;;;;5135016;28;20055;-52
2021/08/01 07:31:19;;;;;;;1.10;1.00;;;24.80;50.30;;;;;;5134444;28;20131;-54
2021/08/01 07:33:44;;;;;;;1.10;1.00;;;24.80;50.30;;;;;;5134306;28;20136;-50
2021/08/01 07:36:10;;;;;;;0.80;0.80;;;24.90;50.30;;;;;;5134528;28;20054;-51
2021/08/01 07:38:35;;;;;;;0.65;0.65;;;24.80;50.20;;;;;;5134378;28;20142;-51
2021/08/01 07:41:01;;;;;;;1.00;0.90;;;25.00;50.20;;;;;;5134280;28;20479;-49
2021/08/01 07:43:26;;;;;;;0.88;0.88;;;25.00;50.10;;;;;;5134263;28;20137;-51
2021/08/01 07:45:52;;;;;;;1.05;0.98;;;25.00;50.00;;;;;;5134341;27;20074;-51
2021/08/01 07:48:17;;;;;;;1.00;0.90;;;25.10;50.00;;;;;;5113863;28;20066;-48
2021/08/01 07:50:43;;;;;;;0.80;0.80;;;25.10;49.80;;;;;;5134634;28;20051;-49
2021/08/01 07:53:08;;;;;;;0.95;0.90;;;25.10;49.80;;;;;;5134143;28;20554;-52
2021/08/01 07:55:34;;;;;;;0.90;0.90;;;25.10;49.80;;;;;;5134588;28;20047;-51
2021/08/01 07:58:00;;;;;;;1.05;0.98;;;25.10;49.70;;;;;;5133987;28;20107;-48
2021/08/01 08:00:25;;;;;;;0.80;0.80;;;25.10;49.70;;;;;;5134112;28;20600;-49
2021/08/01 08:02:51;;;;;;;0.80;0.80;;;25.10;49.70;;;;;;5134452;28;20184;-47
2021/08/01 08:05:17;;;;;;;1.10;1.00;;;25.10;49.80;;;;;;5134275;28;20054;-51
2021/08/01 08:07:42;;;;;;;0.77;0.77;;;25.10;49.80;;;;;;5133999;28;20490;-47
2021/08/01 08:10:09;;;;;;;0.90;0.90;;;25.10;49.80;;;;;;5133889;28;20104;-50
2021/08/01 08:12:34;;;;;;;0.90;0.90;;;25.00;49.80;;;;;;5133800;28;20482;-48
2021/08/01 08:15:00;;;;;;;1.27;1.17;;;25.10;49.90;;;;;;5115849;28;20066;-49
2021/08/01 08:17:31;;;;;;;0.80;0.80;;;25.10;49.80;;;;;;5133916;28;20065;-49
2021/08/01 08:19:56;;;;;;;0.97;0.90;;;25.10;49.80;;;;;;5133944;28;20054;-52
2021/08/01 08:22:22;;;;;;;1.00;0.90;;;25.10;49.70;;;;;;5133693;28;20051;-52
2021/08/01 08:24:47;;;;;;;0.80;0.80;;;25.10;49.70;;;;;;5134131;28;20468;-49
2021/08/01 08:27:13;;;;;;;1.10;1.00;;;25.20;49.70;;;;;;5115975;28;20483;-47
2021/08/01 08:29:39;;;;;;;1.00;0.90;;;25.20;49.60;;;;;;5113584;28;20488;-48
2021/08/01 08:32:04;;;;;;;0.90;0.90;;;25.20;49.40;;;;;;5133952;28;20051;-50
2021/08/01 08:34:30;;;;;;;0.88;0.88;;;25.30;49.40;;;;;;5133575;28;20058;-51
2021/08/01 08:37:00;;;;;;;0.88;0.85;;;25.30;49.40;;;;;;5134173;28;20467;-53
2021/08/01 08:39:27;;;;;;;1.50;1.10;;;25.20;49.30;;;;;;5133626;28;20100;-51
2021/08/01 08:41:55;;;;;;;1.00;0.80;;;25.30;49.40;;;;;;5115031;28;20055;-49
2021/08/01 08:44:21;;;;;;;1.08;1.02;;;25.30;49.40;;;;;;5133535;28;20138;-53
2021/08/01 08:46:47;;;;;;;1.05;0.88;;;25.20;49.30;;;;;;5134072;28;20126;-54
2021/08/01 08:49:15;;;;;;;0.80;0.80;;;25.20;49.30;;;;;;5133503;28;20047;-48
2021/08/01 08:51:45;;;;;;;1.10;1.00;;;25.30;49.40;;;;;;5133720;28;20047;-53
2021/08/01 08:54:31;;;;;;;0.75;0.75;;;25.30;49.40;;;;;;5113606;28;20468;-52
2021/08/01 08:56:59;;;;;;;0.88;0.88;;;25.40;49.30;;;;;;5133794;27;20051;-48
2021/08/01 08:59:26;;;;;;;0.77;0.77;;;25.40;49.20;;;;;;5134910;28;20050;-51
2021/08/01 09:01:52;;;;;;;0.88;0.80;;;25.40;49.10;;;;;;5137592;28;20375;-51
2021/08/01 09:04:18;;;;;;;0.70;0.70;;;25.40;49.10;;;;;;5136885;28;20051;-53
2021/08/01 09:06:44;;;;;;;0.90;0.90;;;25.40;49.00;;;;;;5136900;28;20080;-52
2021/08/01 09:09:13;;;;;;;0.90;0.90;;;25.50;49.10;;;;;;5137107;28;20123;-51
2021/08/01 09:11:39;;;;;;;0.90;0.90;;;25.50;49.00;;;;;;5118307;28;20510;-52
2021/08/01 09:14:04;;;;;;;0.80;0.80;;;25.50;49.00;;;;;;5117395;28;20058;-52
2021/08/01 09:16:50;;;;;;;0.90;0.90;;;25.50;48.90;;;;;;5137211;28;20134;-53
2021/08/01 09:19:34;;;;;;;0.77;0.77;;;25.50;48.80;;;;;;5136535;28;20134;-54
2021/08/01 09:22:12;;;;;;;0.80;0.80;;;25.60;48.90;;;;;;5137049;28;20058;-52
2021/08/01 09:24:38;;;;;;;0.70;0.70;;;25.60;48.80;;;;;;5136681;28;20046;-49
2021/08/01 09:27:05;;;;;;;0.80;0.80;;;25.60;48.80;;;;;;5136593;28;20047;-50
2021/08/01 09:29:32;;;;;;;1.08;0.95;;;25.60;48.80;;;;;;5137021;28;20043;-51
2021/08/01 09:32:02;;;;;;;1.40;1.20;;;25.60;48.80;;;;;;5136416;28;20051;-52
2021/08/01 09:34:28;;;;;;;0.98;0.98;;;25.60;48.80;;;;;;5136991;28;20067;-50
2021/08/01 09:37:00;;;;;;;0.98;0.93;;;25.60;48.80;;;;;;5136447;28;20402;-52
2021/08/01 09:39:26;;;;;;;0.98;0.90;;;25.60;48.80;;;;;;5136445;28;20069;-53
2021/08/01 09:42:02;;;;;;;0.90;0.90;;;25.60;48.80;;;;;;5136884;28;20086;-50
2021/08/01 09:44:28;;;;;;;0.80;0.80;;;25.60;48.70;;;;;;5136790;28;20043;-52
2021/08/01 09:46:56;;;;;;;0.75;0.70;;;25.60;48.70;;;;;;5136579;28;20142;-48
2021/08/01 09:49:24;;;;;;;0.70;0.70;;;25.70;48.60;;;;;;5136808;28;20078;-50
2021/08/01 09:51:56;;;;;;;1.00;0.90;;;25.70;48.60;;;;;;5136477;28;20051;-52
2021/08/01 09:54:24;;;;;;;0.93;0.90;;;25.70;48.50;;;;;;5136006;28;20092;-49
2021/08/01 09:57:01;;;;;;;0.80;0.80;;;25.80;48.50;;;;;;5117524;28;20073;-50
2021/08/01 09:59:29;;;;;;;0.70;0.70;;;25.80;48.40;;;;;;5136105;28;20059;-49
2021/08/01 10:02:00;;;;;;;1.08;0.98;;;25.80;48.30;;;;;;5117579;28;20088;-49
2021/08/01 10:04:42;;;;;;;0.70;0.70;;;25.90;48.30;;;;;;5136346;28;20130;-48
2021/08/01 10:07:12;;;;;;;1.00;0.90;;;25.90;48.30;;;;;;5135961;28;20384;-50
2021/08/01 10:09:39;;;;;;;1.03;0.93;;;25.90;48.20;;;;;;5134886;27;20099;-53
2021/08/01 10:12:06;;;;;;;0.70;0.70;;;25.90;48.20;;;;;;5135888;28;20043;-49
2021/08/01 10:14:33;;;;;;;0.77;0.77;;;25.90;48.10;;;;;;5135658;28;20044;-48
2021/08/01 10:16:59;;;;;;;1.00;1.00;;;25.90;48.10;;;;;;5135315;28;20062;-51
2021/08/01 10:19:25;;;;;;;0.70;0.70;;;25.90;48.10;;;;;;5135601;28;20047;-47
2021/08/01 10:21:57;;;;;;;0.88;0.77;;;25.90;48.10;;;;;;5135930;28;20050;-47
2021/08/01 10:24:29;;;;;;;0.90;0.90;;;25.90;48.20;;;;;;5135684;28;20047;-47
2021/08/01 10:27:00;;;;;;;0.80;0.80;;;25.90;48.20;;;;;;5117642;28;20051;-51
2021/08/01 10:29:32;;;;;;;0.90;0.90;;;25.80;48.20;;;;;;5135623;28;20058;-50
2021/08/01 10:32:11;;;;;;;0.85;0.85;;;25.80;48.10;;;;;;5135907;28;20567;-46
2021/08/01 10:34:50;;;;;;;0.88;0.88;;;25.80;48.20;;;;;;5135831;28;20051;-49
2021/08/01 10:37:24;;;;;;;1.27;1.17;;;25.80;48.30;;;;;;5116148;28;20126;-47
2021/08/01 10:39:52;;;;;;;0.73;0.73;;;25.80;48.30;;;;;;5135530;28;20051;-47
2021/08/01 10:42:19;;;;;;;1.05;0.95;;;25.80;48.40;;;;;;5135431;28;20509;-46
2021/08/01 10:44:45;;;;;;;0.95;0.95;;;25.80;48.30;;;;;;5117192;28;20047;-46
2021/08/01 10:47:11;;;;;;;0.80;0.80;;;25.80;48.20;;;;;;5135244;28;20055;-49
2021/08/01 10:49:42;;;;;;;0.82;0.82;;;25.80;48.20;;;;;;5135277;28;20075;-50
2021/08/01 10:52:09;;;;;;;0.80;0.80;;;25.80;48.20;;;;;;5135906;28;20054;-51
2021/08/01 10:54:35;;;;;;;0.75;0.75;;;25.80;48.20;;;;;;5135376;28;20051;-50
2021/08/01 10:57:19;;;;;;;0.85;0.85;;;25.80;48.20;;;;;;5134975;28;20066;-52
2021/08/01 10:59:45;;;;;;;1.00;1.00;;;25.80;48.10;;;;;;5135108;28;20055;-49
2021/08/01 11:02:13;;;;;;;0.60;0.60;;;25.90;48.20;;;;;;5133250;28;20440;-51
2021/08/01 11:04:39;;;;;;;0.88;0.88;;;25.90;48.10;;;;;;5116345;28;20055;-49
2021/08/01 11:07:05;;;;;;;0.80;0.80;;;25.90;48.10;;;;;;5134730;28;20142;-50
2021/08/01 11:09:31;;;;;;;0.80;0.80;;;25.90;48.00;;;;;;5135176;28;20105;-48
2021/08/01 11:12:28;;;;;;;0.77;0.77;;;25.90;48.00;;;;;;5134850;28;20047;-49
2021/08/01 11:14:54;;;;;;;0.80;0.80;;;26.00;48.00;;;;;;5116378;28;20059;-51
2021/08/01 11:17:46;;;;;;;1.08;0.95;;;26.00;47.90;;;;;;5134784;28;20055;-52
2021/08/01 11:20:23;;;;;;;1.05;0.93;;;26.00;47.80;;;;;;5134176;27;20107;-49
2021/08/01 11:22:52;;;;;;;0.80;0.80;;;26.00;47.80;;;;;;5134881;28;20525;-49
2021/08/01 11:25:20;;;;;;;0.70;0.70;;;26.00;47.80;;;;;;5135029;28;20078;-47
2021/08/01 11:28:08;;;;;;;0.85;0.85;;;25.90;47.80;;;;;;5134740;28;20051;-53
2021/08/01 11:30:55;;;;;;;0.65;0.65;;;25.90;48.00;;;;;;5131260;28;20104;-52
2021/08/01 11:33:41;;;;;;;0.70;0.70;;;25.80;48.00;;;;;;5134582;28;20487;-49
2021/08/01 11:36:12;;;;;;;0.90;0.90;;;25.80;48.10;;;;;;5134851;28;20054;-46
2021/08/01 11:38:57;;;;;;;0.93;0.90;;;25.80;48.20;;;;;;5134460;28;20046;-52
2021/08/01 11:41:29;;;;;;;1.00;1.00;;;25.80;48.20;;;;;;5134339;28;20403;-50
2021/08/01 11:43:58;;;;;;;1.25;0.95;;;25.80;48.30;;;;;;5134581;28;20111;-50
2021/08/01 11:46:25;;;;;;;1.42;1.00;;;25.70;48.30;;;;;;5134209;28;20081;-48
2021/08/01 11:48:58;;;;;;;0.80;0.80;;;25.70;48.30;;;;;;5134536;28;20047;-51
2021/08/01 11:51:30;;;;;;;1.00;1.00;;;25.70;48.30;;;;;;5114017;28;20108;-50
2021/08/01 11:53:56;;;;;;;1.00;1.00;;;25.70;48.40;;;;;;5113994;28;20073;-50
2021/08/01 11:56:22;;;;;;;0.82;0.82;;;25.70;48.40;;;;;;5134285;28;20137;-48
2021/08/01 11:58:53;;;;;;;0.95;0.88;;;25.70;48.40;;;;;;5133879;28;20050;-48
2021/08/01 12:01:20;;;;;;;1.08;0.90;;;25.70;48.40;;;;;;5133961;28;20051;-51
2021/08/01 12:03:48;;;;;;;0.70;0.70;;;25.70;48.30;;;;;;5133936;28;20054;-50
2021/08/01 12:06:40;;;;;;;1.00;0.90;;;25.80;48.40;;;;;;5133945;28;20141;-47
2021/08/01 12:09:25;;;;;;;1.27;1.17;;;25.80;48.20;;;;;;5133815;28;20085;-46
2021/08/01 12:11:56;;;;;;;0.95;0.90;;;25.90;48.20;;;;;;5133967;28;20509;-48
2021/08/01 12:14:32;;;;;;;0.95;0.95;;;25.90;48.10;;;;;;5133876;28;20096;-49
2021/08/01 12:17:02;;;;;;;0.70;0.70;;;25.90;48.10;;;;;;5133834;28;20403;-50
2021/08/01 12:19:34;;;;;;;1.33;1.23;;;25.80;48.10;;;;;;5133684;28;20051;-48
2021/08/01 12:22:12;;;;;;;1.08;1.00;;;25.80;48.10;;;;;;5133940;28;20050;-47
2021/08/01 12:24:40;;;;;;;0.80;0.80;;;25.80;48.10;;;;;;5133771;28;20043;-51
2021/08/01 12:27:07;;;;;;;1.20;1.10;;;25.80;48.20;;;;;;5134109;28;20055;-49
2021/08/01 12:29:38;;;;;;;0.82;0.82;;;25.80;48.20;;;;;;5133757;28;20070;-47
2021/08/01 12:32:25;;;;;;;0.85;0.80;;;25.80;48.20;;;;;;5115274;28;20055;-50
2021/08/01 12:35:10;;;;;;;1.00;1.00;;;25.80;48.20;;;;;;5133638;28;20043;-51
2021/08/01 12:37:45;;;;;;;1.20;1.10;;;25.80;48.20;;;;;;5133477;28;20051;-47
2021/08/01 12:40:25;;;;;;;1.15;1.05;;;25.80;48.30;;;;;;5134200;28;20054;-47
2021/08/01 12:42:53;;;;;;;1.13;1.05;;;25.80;48.30;;;;;;5115589;28;20047;-47
2021/08/01 12:45:19;;;;;;;0.88;0.88;;;25.80;48.40;;;;;;5133473;28;20066;-50
2021/08/01 12:47:45;;;;;;;0.80;0.80;;;25.70;48.30;;;;;;5133728;28;20052;-46
2021/08/01 12:50:11;;;;;;;0.85;0.85;;;25.70;48.30;;;;;;5133466;28;20088;-47
2021/08/01 12:52:37;;;;;;;0.93;0.93;;;25.70;48.40;;;;;;5133528;28;20456;-47
2021/08/01 12:55:05;;;;;;;1.17;1.08;;;25.70;48.40;;;;;;5133900;28;20087;-48
2021/08/01 12:57:31;;;;;;;1.20;1.10;;;25.70;48.40;;;;;;5133206;28;20058;-49
2021/08/01 13:00:14;;;;;;;0.98;0.98;;;25.60;48.40;;;;;;5133540;28;20483;-52